sensor_id;sensor_type;location;lat;lon;timestamp;temperature;humidity
11855;DHT22;5987;53.140;8.904;2023-04-24T00:00:17;11.70;99.90
11855;DHT22;5987;53.140;8.904;2023-04-24T00:03:22;11.80;99.90
11855;DHT22;5987;53.140;8.904;2023-04-24T00:06:26;11.80;99.90
11855;DHT22;5987;53.140;8.904;2023-04-24T00:09:34;11.80;99.90
11855;DHT22;5987;53.140;8.904;2023-04-24T00:12:38;11.90;99.90
11855;DHT22;5987;53.140;8.904;2023-04-24T00:15:42;12.00;99.90
11855;DHT22;5987;53.140;8.904;2023-04-24T00:18:46;12.00;99.90
11855;DHT22;5987;53.140;8.904;2023-04-24T00:21:51;11.90;99.90
11855;DHT22;5987;53.140;8.904;2023-04-24T00:24:56;11.90;99.90
11855;DHT22;5987;53.140;8.904;2023-04-24T00:27:59;11.90;99.90
11855;DHT22;5987;53.140;8.904;2023-04-24T00:31:04;12.00;99.90
11855;DHT22;5987;53.140;8.904;2023-04-24T00:34:09;12.10;99.90
11855;DHT22;5987;53.140;8.904;2023-04-24T00:37:13;12.00;99.90
11855;DHT22;5987;53.140;8.904;2023-04-24T00:40:17;12.00;99.90
11855;DHT22;5987;53.140;8.904;2023-04-24T00:43:20;12.00;99.90
11855;DHT22;5987;53.140;8.904;2023-04-24T00:46:24;12.00;99.90
11855;DHT22;5987;53.140;8.904;2023-04-24T00:49:29;12.00;99.90
11855;DHT22;5987;53.140;8.904;2023-04-24T00:52:33;12.00;99.90
11855;DHT22;5987;53.140;8.904;2023-04-24T00:55:36;12.10;99.90
11855;DHT22;5987;53.140;8.904;2023-04-24T00:58:40;12.10;99.90
11855;DHT22;5987;53.140;8.904;2023-04-24T01:01:45;12.10;99.90
11855;DHT22;5987;53.140;8.904;2023-04-24T01:04:51;12.10;99.90
11855;DHT22;5987;53.140;8.904;2023-04-24T01:07:54;12.00;99.90
11855;DHT22;5987;53.140;8.904;2023-04-24T01:11:00;12.00;99.90
11855;DHT22;5987;53.140;8.904;2023-04-24T01:14:08;12.00;99.90
11855;DHT22;5987;53.140;8.904;2023-04-24T01:17:12;11.90;99.90
11855;DHT22;5987;53.140;8.904;2023-04-24T01:20:19;11.80;99.90
11855;DHT22;5987;53.140;8.904;2023-04-24T01:23:24;11.80;99.90
11855;DHT22;5987;53.140;8.904;2023-04-24T01:26:27;11.70;99.90
11855;DHT22;5987;53.140;8.904;2023-04-24T01:29:31;11.70;99.90
11855;DHT22;5987;53.140;8.904;2023-04-24T01:32:36;11.70;99.90
11855;DHT22;5987;53.140;8.904;2023-04-24T01:35:40;11.70;99.90
11855;DHT22;5987;53.140;8.904;2023-04-24T01:38:46;11.70;99.90
11855;DHT22;5987;53.140;8.904;2023-04-24T01:41:49;11.70;99.90
11855;DHT22;5987;53.140;8.904;2023-04-24T01:44:54;11.70;99.90
11855;DHT22;5987;53.140;8.904;2023-04-24T01:47:57;11.80;99.90
11855;DHT22;5987;53.140;8.904;2023-04-24T01:51:02;11.80;99.90
11855;DHT22;5987;53.140;8.904;2023-04-24T01:54:07;11.90;99.90
11855;DHT22;5987;53.140;8.904;2023-04-24T01:57:10;11.90;99.90
11855;DHT22;5987;53.140;8.904;2023-04-24T02:00:14;11.80;99.90
11855;DHT22;5987;53.140;8.904;2023-04-24T02:03:18;11.80;99.90
11855;DHT22;5987;53.140;8.904;2023-04-24T02:06:22;11.80;99.90
11855;DHT22;5987;53.140;8.904;2023-04-24T02:09:27;11.80;99.90
11855;DHT22;5987;53.140;8.904;2023-04-24T02:12:30;11.80;99.90
11855;DHT22;5987;53.140;8.904;2023-04-24T02:15:34;11.70;99.90
11855;DHT22;5987;53.140;8.904;2023-04-24T02:18:37;11.70;99.90
11855;DHT22;5987;53.140;8.904;2023-04-24T02:21:41;11.70;99.90
11855;DHT22;5987;53.140;8.904;2023-04-24T02:24:47;11.80;99.90
11855;DHT22;5987;53.140;8.904;2023-04-24T02:27:51;11.80;99.90
11855;DHT22;5987;53.140;8.904;2023-04-24T02:30:54;11.80;99.90
11855;DHT22;5987;53.140;8.904;2023-04-24T02:33:58;11.80;99.90
11855;DHT22;5987;53.140;8.904;2023-04-24T02:37:01;11.80;99.90
11855;DHT22;5987;53.140;8.904;2023-04-24T02:40:08;11.80;99.90
11855;DHT22;5987;53.140;8.904;2023-04-24T02:43:12;11.80;99.90
11855;DHT22;5987;53.140;8.904;2023-04-24T02:46:16;11.70;99.90
11855;DHT22;5987;53.140;8.904;2023-04-24T02:49:19;11.80;99.90
11855;DHT22;5987;53.140;8.904;2023-04-24T02:52:23;11.70;99.90
11855;DHT22;5987;53.140;8.904;2023-04-24T02:55:28;11.60;99.90
11855;DHT22;5987;53.140;8.904;2023-04-24T02:58:32;11.60;99.90
11855;DHT22;5987;53.140;8.904;2023-04-24T03:01:36;11.60;99.90
11855;DHT22;5987;53.140;8.904;2023-04-24T03:04:39;11.50;99.90
11855;DHT22;5987;53.140;8.904;2023-04-24T03:07:45;11.60;99.90
11855;DHT22;5987;53.140;8.904;2023-04-24T03:10:50;11.60;99.90
11855;DHT22;5987;53.140;8.904;2023-04-24T03:13:53;11.60;99.90
11855;DHT22;5987;53.140;8.904;2023-04-24T03:16:57;11.60;99.90
11855;DHT22;5987;53.140;8.904;2023-04-24T03:20:00;11.60;99.90
11855;DHT22;5987;53.140;8.904;2023-04-24T03:23:04;11.70;99.90
11855;DHT22;5987;53.140;8.904;2023-04-24T03:26:09;11.70;99.90
11855;DHT22;5987;53.140;8.904;2023-04-24T03:29:12;11.70;99.90
11855;DHT22;5987;53.140;8.904;2023-04-24T03:32:16;11.70;99.90
11855;DHT22;5987;53.140;8.904;2023-04-24T03:35:19;11.80;99.90
11855;DHT22;5987;53.140;8.904;2023-04-24T03:38:24;11.80;99.90
11855;DHT22;5987;53.140;8.904;2023-04-24T03:41:29;11.80;99.90
11855;DHT22;5987;53.140;8.904;2023-04-24T03:44:33;11.80;99.90
11855;DHT22;5987;53.140;8.904;2023-04-24T03:47:36;11.80;99.90
11855;DHT22;5987;53.140;8.904;2023-04-24T03:50:40;11.80;99.90
11855;DHT22;5987;53.140;8.904;2023-04-24T03:53:43;11.80;99.90
11855;DHT22;5987;53.140;8.904;2023-04-24T03:56:48;11.80;99.90
11855;DHT22;5987;53.140;8.904;2023-04-24T03:59:52;11.80;99.90
11855;DHT22;5987;53.140;8.904;2023-04-24T04:02:55;11.80;99.90
11855;DHT22;5987;53.140;8.904;2023-04-24T04:05:59;11.80;99.90
11855;DHT22;5987;53.140;8.904;2023-04-24T04:09:03;11.70;99.90
11855;DHT22;5987;53.140;8.904;2023-04-24T04:12:08;11.80;99.90
11855;DHT22;5987;53.140;8.904;2023-04-24T04:15:11;11.70;99.90
11855;DHT22;5987;53.140;8.904;2023-04-24T04:18:15;11.60;99.90
11855;DHT22;5987;53.140;8.904;2023-04-24T04:21:18;11.60;99.90
11855;DHT22;5987;53.140;8.904;2023-04-24T04:24:22;11.60;99.90
11855;DHT22;5987;53.140;8.904;2023-04-24T04:27:27;11.60;99.90
11855;DHT22;5987;53.140;8.904;2023-04-24T04:30:33;11.60;99.90
11855;DHT22;5987;53.140;8.904;2023-04-24T04:33:40;11.60;99.90
11855;DHT22;5987;53.140;8.904;2023-04-24T04:36:43;11.60;99.90
11855;DHT22;5987;53.140;8.904;2023-04-24T04:39:48;11.70;99.90
11855;DHT22;5987;53.140;8.904;2023-04-24T04:42:53;11.70;99.90
11855;DHT22;5987;53.140;8.904;2023-04-24T04:45:57;11.80;99.90
11855;DHT22;5987;53.140;8.904;2023-04-24T04:49:02;11.80;99.90
11855;DHT22;5987;53.140;8.904;2023-04-24T04:52:06;11.80;99.90
11855;DHT22;5987;53.140;8.904;2023-04-24T04:55:10;11.80;99.90
11855;DHT22;5987;53.140;8.904;2023-04-24T04:58:16;11.90;99.90
11855;DHT22;5987;53.140;8.904;2023-04-24T05:01:20;11.90;99.90
11855;DHT22;5987;53.140;8.904;2023-04-24T05:04:25;11.80;99.90
11855;DHT22;5987;53.140;8.904;2023-04-24T05:07:29;11.80;99.90
11855;DHT22;5987;53.140;8.904;2023-04-24T05:10:32;11.80;99.90
11855;DHT22;5987;53.140;8.904;2023-04-24T05:13:37;11.90;99.90
11855;DHT22;5987;53.140;8.904;2023-04-24T05:16:42;11.90;99.90
11855;DHT22;5987;53.140;8.904;2023-04-24T05:19:46;11.70;99.90
11855;DHT22;5987;53.140;8.904;2023-04-24T05:22:50;11.80;99.90
11855;DHT22;5987;53.140;8.904;2023-04-24T05:25:53;11.90;99.90
11855;DHT22;5987;53.140;8.904;2023-04-24T05:28:58;11.90;99.90
11855;DHT22;5987;53.140;8.904;2023-04-24T05:32:02;11.90;99.90
11855;DHT22;5987;53.140;8.904;2023-04-24T05:35:06;11.90;99.90
11855;DHT22;5987;53.140;8.904;2023-04-24T05:38:10;11.90;99.90
11855;DHT22;5987;53.140;8.904;2023-04-24T05:41:14;11.80;99.90
11855;DHT22;5987;53.140;8.904;2023-04-24T05:44:19;12.00;99.90
11855;DHT22;5987;53.140;8.904;2023-04-24T05:47:22;12.00;99.90
11855;DHT22;5987;53.140;8.904;2023-04-24T05:50:28;12.10;99.90
11855;DHT22;5987;53.140;8.904;2023-04-24T05:53:31;12.00;99.90
11855;DHT22;5987;53.140;8.904;2023-04-24T05:56:35;12.00;99.90
11855;DHT22;5987;53.140;8.904;2023-04-24T05:59:41;12.00;99.90
11855;DHT22;5987;53.140;8.904;2023-04-24T06:02:46;12.10;99.90
11855;DHT22;5987;53.140;8.904;2023-04-24T06:05:50;12.20;99.90
11855;DHT22;5987;53.140;8.904;2023-04-24T06:08:54;12.20;99.90
11855;DHT22;5987;53.140;8.904;2023-04-24T06:11:59;12.30;99.90
11855;DHT22;5987;53.140;8.904;2023-04-24T06:15:05;12.40;99.90
11855;DHT22;5987;53.140;8.904;2023-04-24T06:18:10;12.40;99.90
11855;DHT22;5987;53.140;8.904;2023-04-24T06:21:16;12.60;99.90
11855;DHT22;5987;53.140;8.904;2023-04-24T06:24:20;12.70;99.90
11855;DHT22;5987;53.140;8.904;2023-04-24T06:27:23;12.60;99.90
11855;DHT22;5987;53.140;8.904;2023-04-24T06:30:28;12.50;99.90
11855;DHT22;5987;53.140;8.904;2023-04-24T06:33:32;12.50;99.90
11855;DHT22;5987;53.140;8.904;2023-04-24T06:36:36;12.40;99.90
11855;DHT22;5987;53.140;8.904;2023-04-24T06:39:40;12.50;99.90
11855;DHT22;5987;53.140;8.904;2023-04-24T06:42:44;12.50;99.90
11855;DHT22;5987;53.140;8.904;2023-04-24T06:45:49;12.70;99.90
11855;DHT22;5987;53.140;8.904;2023-04-24T06:48:52;12.80;99.90
11855;DHT22;5987;53.140;8.904;2023-04-24T06:51:57;12.70;99.90
11855;DHT22;5987;53.140;8.904;2023-04-24T06:55:01;12.60;99.90
11855;DHT22;5987;53.140;8.904;2023-04-24T06:58:05;12.50;99.90
11855;DHT22;5987;53.140;8.904;2023-04-24T07:01:11;12.60;99.90
11855;DHT22;5987;53.140;8.904;2023-04-24T07:04:14;12.50;99.90
11855;DHT22;5987;53.140;8.904;2023-04-24T07:07:18;12.40;99.90
11855;DHT22;5987;53.140;8.904;2023-04-24T07:10:26;12.30;99.90
11855;DHT22;5987;53.140;8.904;2023-04-24T07:13:30;12.30;99.90
11855;DHT22;5987;53.140;8.904;2023-04-24T07:16:35;12.20;99.90
11855;DHT22;5987;53.140;8.904;2023-04-24T07:19:39;12.20;99.90
11855;DHT22;5987;53.140;8.904;2023-04-24T07:22:43;12.20;99.90
11855;DHT22;5987;53.140;8.904;2023-04-24T07:25:46;12.20;99.90
11855;DHT22;5987;53.140;8.904;2023-04-24T07:28:50;12.30;99.90
11855;DHT22;5987;53.140;8.904;2023-04-24T07:31:55;12.40;99.90
11855;DHT22;5987;53.140;8.904;2023-04-24T07:34:59;12.60;99.90
11855;DHT22;5987;53.140;8.904;2023-04-24T07:38:05;12.80;99.90
11855;DHT22;5987;53.140;8.904;2023-04-24T07:41:09;12.90;99.90
11855;DHT22;5987;53.140;8.904;2023-04-24T07:44:12;13.00;99.90
11855;DHT22;5987;53.140;8.904;2023-04-24T07:47:17;13.00;99.90
11855;DHT22;5987;53.140;8.904;2023-04-24T07:50:21;13.10;99.90
11855;DHT22;5987;53.140;8.904;2023-04-24T07:53:25;13.10;99.90
11855;DHT22;5987;53.140;8.904;2023-04-24T07:56:29;13.20;99.90
11855;DHT22;5987;53.140;8.904;2023-04-24T07:59:33;13.20;99.90
11855;DHT22;5987;53.140;8.904;2023-04-24T08:02:38;13.20;99.90
11855;DHT22;5987;53.140;8.904;2023-04-24T08:05:42;13.20;99.90
11855;DHT22;5987;53.140;8.904;2023-04-24T08:08:46;13.20;99.90
11855;DHT22;5987;53.140;8.904;2023-04-24T08:11:49;13.20;99.90
11855;DHT22;5987;53.140;8.904;2023-04-24T08:14:53;13.20;99.90
11855;DHT22;5987;53.140;8.904;2023-04-24T08:17:58;13.30;99.90
11855;DHT22;5987;53.140;8.904;2023-04-24T08:21:02;13.40;99.90
11855;DHT22;5987;53.140;8.904;2023-04-24T08:24:06;13.30;99.90
11855;DHT22;5987;53.140;8.904;2023-04-24T08:27:10;13.30;99.90
11855;DHT22;5987;53.140;8.904;2023-04-24T08:30:14;13.20;99.90
11855;DHT22;5987;53.140;8.904;2023-04-24T08:33:19;12.90;99.90
11855;DHT22;5987;53.140;8.904;2023-04-24T08:36:23;12.90;99.90
11855;DHT22;5987;53.140;8.904;2023-04-24T08:39:44;12.90;99.90
11855;DHT22;5987;53.140;8.904;2023-04-24T08:42:48;12.90;99.90
11855;DHT22;5987;53.140;8.904;2023-04-24T08:45:57;12.90;99.90
11855;DHT22;5987;53.140;8.904;2023-04-24T08:49:03;13.20;99.90
11855;DHT22;5987;53.140;8.904;2023-04-24T08:52:08;13.60;99.90
11855;DHT22;5987;53.140;8.904;2023-04-24T08:55:15;13.80;99.90
11855;DHT22;5987;53.140;8.904;2023-04-24T08:58:20;13.90;99.90
11855;DHT22;5987;53.140;8.904;2023-04-24T09:01:25;13.90;99.90
11855;DHT22;5987;53.140;8.904;2023-04-24T09:04:33;13.80;99.90
11855;DHT22;5987;53.140;8.904;2023-04-24T09:07:41;13.70;99.90
11855;DHT22;5987;53.140;8.904;2023-04-24T09:10:48;13.70;99.90
11855;DHT22;5987;53.140;8.904;2023-04-24T09:13:53;13.60;99.90
11855;DHT22;5987;53.140;8.904;2023-04-24T09:16:56;13.50;99.90
11855;DHT22;5987;53.140;8.904;2023-04-24T09:20:03;13.40;99.90
11855;DHT22;5987;53.140;8.904;2023-04-24T09:23:07;13.40;99.90
11855;DHT22;5987;53.140;8.904;2023-04-24T09:26:18;13.50;99.90
11855;DHT22;5987;53.140;8.904;2023-04-24T09:29:22;13.70;99.90
11855;DHT22;5987;53.140;8.904;2023-04-24T09:32:25;13.60;99.90
11855;DHT22;5987;53.140;8.904;2023-04-24T09:35:32;13.40;99.90
11855;DHT22;5987;53.140;8.904;2023-04-24T09:38:37;13.50;99.90
11855;DHT22;5987;53.140;8.904;2023-04-24T09:41:45;13.80;99.90
11855;DHT22;5987;53.140;8.904;2023-04-24T09:44:49;14.00;99.90
11855;DHT22;5987;53.140;8.904;2023-04-24T09:48:05;14.10;99.90
11855;DHT22;5987;53.140;8.904;2023-04-24T09:51:14;13.90;99.90
11855;DHT22;5987;53.140;8.904;2023-04-24T09:54:18;13.70;99.90
11855;DHT22;5987;53.140;8.904;2023-04-24T09:57:23;13.70;99.90
11855;DHT22;5987;53.140;8.904;2023-04-24T10:00:28;13.50;99.90
11855;DHT22;5987;53.140;8.904;2023-04-24T10:03:34;13.40;99.90
11855;DHT22;5987;53.140;8.904;2023-04-24T10:06:42;13.30;99.90
11855;DHT22;5987;53.140;8.904;2023-04-24T10:09:46;13.30;99.90
11855;DHT22;5987;53.140;8.904;2023-04-24T10:12:51;13.20;99.90
11855;DHT22;5987;53.140;8.904;2023-04-24T10:16:04;13.10;99.90
11855;DHT22;5987;53.140;8.904;2023-04-24T10:19:09;13.00;99.90
11855;DHT22;5987;53.140;8.904;2023-04-24T10:22:17;13.00;99.90
11855;DHT22;5987;53.140;8.904;2023-04-24T10:25:24;13.00;99.90
11855;DHT22;5987;53.140;8.904;2023-04-24T10:28:30;12.90;99.90
11855;DHT22;5987;53.140;8.904;2023-04-24T10:31:37;12.90;99.90
11855;DHT22;5987;53.140;8.904;2023-04-24T10:34:42;12.80;99.90
11855;DHT22;5987;53.140;8.904;2023-04-24T10:37:50;12.70;99.90
11855;DHT22;5987;53.140;8.904;2023-04-24T10:41:06;12.70;99.90
11855;DHT22;5987;53.140;8.904;2023-04-24T10:44:13;12.70;99.90
11855;DHT22;5987;53.140;8.904;2023-04-24T10:47:18;12.70;99.90
11855;DHT22;5987;53.140;8.904;2023-04-24T10:50:22;12.60;99.90
11855;DHT22;5987;53.140;8.904;2023-04-24T10:53:29;12.50;99.90
11855;DHT22;5987;53.140;8.904;2023-04-24T10:56:33;12.50;99.90
11855;DHT22;5987;53.140;8.904;2023-04-24T10:59:37;12.60;99.90
11855;DHT22;5987;53.140;8.904;2023-04-24T11:02:41;12.80;99.90
11855;DHT22;5987;53.140;8.904;2023-04-24T11:05:53;12.90;99.90
11855;DHT22;5987;53.140;8.904;2023-04-24T11:09:04;12.90;99.90
11855;DHT22;5987;53.140;8.904;2023-04-24T11:12:10;13.10;99.90
11855;DHT22;5987;53.140;8.904;2023-04-24T11:15:17;13.00;99.90
11855;DHT22;5987;53.140;8.904;2023-04-24T11:18:22;13.00;99.90
11855;DHT22;5987;53.140;8.904;2023-04-24T11:21:31;13.00;99.90
11855;DHT22;5987;53.140;8.904;2023-04-24T11:24:39;12.80;99.90
11855;DHT22;5987;53.140;8.904;2023-04-24T11:28:03;12.90;99.90
11855;DHT22;5987;53.140;8.904;2023-04-24T11:31:36;13.00;99.90
11855;DHT22;5987;53.140;8.904;2023-04-24T11:34:41;12.90;99.90
11855;DHT22;5987;53.140;8.904;2023-04-24T11:37:50;12.90;99.90
11855;DHT22;5987;53.140;8.904;2023-04-24T11:41:16;12.70;99.90
11855;DHT22;5987;53.140;8.904;2023-04-24T11:44:20;12.70;99.90
11855;DHT22;5987;53.140;8.904;2023-04-24T11:47:28;12.60;99.90
11855;DHT22;5987;53.140;8.904;2023-04-24T11:50:34;12.40;99.90
11855;DHT22;5987;53.140;8.904;2023-04-24T11:53:38;12.40;99.90
11855;DHT22;5987;53.140;8.904;2023-04-24T11:56:46;12.20;99.90
11855;DHT22;5987;53.140;8.904;2023-04-24T11:59:50;12.20;99.90
11855;DHT22;5987;53.140;8.904;2023-04-24T12:03:05;12.10;99.90
11855;DHT22;5987;53.140;8.904;2023-04-24T12:06:11;12.10;99.90
11855;DHT22;5987;53.140;8.904;2023-04-24T12:09:15;12.10;99.90
11855;DHT22;5987;53.140;8.904;2023-04-24T12:12:21;12.10;99.90
11855;DHT22;5987;53.140;8.904;2023-04-24T12:15:29;12.00;99.90
11855;DHT22;5987;53.140;8.904;2023-04-24T12:18:32;12.00;99.90
11855;DHT22;5987;53.140;8.904;2023-04-24T12:21:36;12.00;99.90
11855;DHT22;5987;53.140;8.904;2023-04-24T12:24:55;11.90;99.90
11855;DHT22;5987;53.140;8.904;2023-04-24T12:28:11;11.80;99.90
11855;DHT22;5987;53.140;8.904;2023-04-24T12:31:16;11.70;99.90
11855;DHT22;5987;53.140;8.904;2023-04-24T12:34:21;11.70;99.90
11855;DHT22;5987;53.140;8.904;2023-04-24T12:37:26;11.60;99.90
11855;DHT22;5987;53.140;8.904;2023-04-24T12:40:35;11.60;99.90
11855;DHT22;5987;53.140;8.904;2023-04-24T12:43:51;11.60;99.90
11855;DHT22;5987;53.140;8.904;2023-04-24T12:46:55;11.40;99.90
11855;DHT22;5987;53.140;8.904;2023-04-24T12:50:00;11.30;99.90
11855;DHT22;5987;53.140;8.904;2023-04-24T12:53:04;11.30;99.90
11855;DHT22;5987;53.140;8.904;2023-04-24T12:56:08;11.20;99.90
11855;DHT22;5987;53.140;8.904;2023-04-24T12:59:13;11.20;99.90
11855;DHT22;5987;53.140;8.904;2023-04-24T13:02:17;11.20;99.90
11855;DHT22;5987;53.140;8.904;2023-04-24T13:05:21;11.20;99.90
11855;DHT22;5987;53.140;8.904;2023-04-24T13:08:26;11.30;99.90
11855;DHT22;5987;53.140;8.904;2023-04-24T13:11:29;11.40;99.90
11855;DHT22;5987;53.140;8.904;2023-04-24T13:14:35;11.40;99.90
11855;DHT22;5987;53.140;8.904;2023-04-24T13:17:40;11.40;99.90
11855;DHT22;5987;53.140;8.904;2023-04-24T13:20:44;11.30;99.90
11855;DHT22;5987;53.140;8.904;2023-04-24T13:23:49;11.20;99.90
11855;DHT22;5987;53.140;8.904;2023-04-24T13:26:53;11.00;99.90
11855;DHT22;5987;53.140;8.904;2023-04-24T13:29:59;10.60;99.90
11855;DHT22;5987;53.140;8.904;2023-04-24T13:33:03;10.40;99.90
11855;DHT22;5987;53.140;8.904;2023-04-24T13:36:07;10.30;99.90
11855;DHT22;5987;53.140;8.904;2023-04-24T13:39:11;10.10;99.90
11855;DHT22;5987;53.140;8.904;2023-04-24T13:42:15;10.00;99.90
11855;DHT22;5987;53.140;8.904;2023-04-24T13:45:28;10.00;99.90
11855;DHT22;5987;53.140;8.904;2023-04-24T13:48:32;10.00;99.90
11855;DHT22;5987;53.140;8.904;2023-04-24T13:51:36;9.90;99.90
11855;DHT22;5987;53.140;8.904;2023-04-24T13:54:39;9.80;99.90
11855;DHT22;5987;53.140;8.904;2023-04-24T13:57:43;9.80;99.90
11855;DHT22;5987;53.140;8.904;2023-04-24T14:00:48;9.70;99.90
11855;DHT22;5987;53.140;8.904;2023-04-24T14:03:52;9.60;99.90
11855;DHT22;5987;53.140;8.904;2023-04-24T14:06:56;9.70;99.90
11855;DHT22;5987;53.140;8.904;2023-04-24T14:09:59;9.70;99.90
11855;DHT22;5987;53.140;8.904;2023-04-24T14:13:03;9.60;99.90
11855;DHT22;5987;53.140;8.904;2023-04-24T14:16:09;9.60;99.90
11855;DHT22;5987;53.140;8.904;2023-04-24T14:19:13;9.50;99.90
11855;DHT22;5987;53.140;8.904;2023-04-24T14:22:16;9.50;99.90
11855;DHT22;5987;53.140;8.904;2023-04-24T14:25:20;9.40;99.90
11855;DHT22;5987;53.140;8.904;2023-04-24T14:28:24;9.40;99.90
11855;DHT22;5987;53.140;8.904;2023-04-24T14:31:30;9.40;99.90
11855;DHT22;5987;53.140;8.904;2023-04-24T14:34:34;9.50;99.90
11855;DHT22;5987;53.140;8.904;2023-04-24T14:37:38;9.50;99.90
11855;DHT22;5987;53.140;8.904;2023-04-24T14:40:43;9.40;99.90
11855;DHT22;5987;53.140;8.904;2023-04-24T14:44:07;9.30;99.90
11855;DHT22;5987;53.140;8.904;2023-04-24T14:47:12;9.30;99.90
11855;DHT22;5987;53.140;8.904;2023-04-24T14:50:15;9.30;99.90
11855;DHT22;5987;53.140;8.904;2023-04-24T14:53:19;9.20;99.90
11855;DHT22;5987;53.140;8.904;2023-04-24T14:56:23;9.20;99.90
11855;DHT22;5987;53.140;8.904;2023-04-24T14:59:27;9.20;99.90
11855;DHT22;5987;53.140;8.904;2023-04-24T15:02:34;9.20;99.90
11855;DHT22;5987;53.140;8.904;2023-04-24T15:05:39;9.20;99.90
11855;DHT22;5987;53.140;8.904;2023-04-24T15:08:43;9.20;99.90
11855;DHT22;5987;53.140;8.904;2023-04-24T15:11:50;9.20;99.90
11855;DHT22;5987;53.140;8.904;2023-04-24T15:14:54;9.30;99.90
11855;DHT22;5987;53.140;8.904;2023-04-24T15:17:59;9.40;99.90
11855;DHT22;5987;53.140;8.904;2023-04-24T15:21:02;9.50;99.90
11855;DHT22;5987;53.140;8.904;2023-04-24T15:24:07;9.50;99.90
11855;DHT22;5987;53.140;8.904;2023-04-24T15:27:11;9.60;99.90
11855;DHT22;5987;53.140;8.904;2023-04-24T15:30:15;9.60;99.90
11855;DHT22;5987;53.140;8.904;2023-04-24T15:33:20;9.60;99.90
11855;DHT22;5987;53.140;8.904;2023-04-24T15:36:23;9.60;99.90
11855;DHT22;5987;53.140;8.904;2023-04-24T15:39:27;9.80;99.90
11855;DHT22;5987;53.140;8.904;2023-04-24T15:42:30;9.80;99.90
11855;DHT22;5987;53.140;8.904;2023-04-24T15:45:34;9.80;99.90
11855;DHT22;5987;53.140;8.904;2023-04-24T15:48:39;9.70;99.90
11855;DHT22;5987;53.140;8.904;2023-04-24T15:51:45;9.80;99.90
11855;DHT22;5987;53.140;8.904;2023-04-24T15:54:48;9.90;99.90
11855;DHT22;5987;53.140;8.904;2023-04-24T15:57:52;9.90;99.90
11855;DHT22;5987;53.140;8.904;2023-04-24T16:00:56;9.90;99.90
11855;DHT22;5987;53.140;8.904;2023-04-24T16:04:01;9.90;99.90
11855;DHT22;5987;53.140;8.904;2023-04-24T16:07:05;9.90;99.90
11855;DHT22;5987;53.140;8.904;2023-04-24T16:10:10;10.00;99.90
11855;DHT22;5987;53.140;8.904;2023-04-24T16:13:14;9.90;99.90
11855;DHT22;5987;53.140;8.904;2023-04-24T16:16:19;9.80;99.90
11855;DHT22;5987;53.140;8.904;2023-04-24T16:19:26;9.90;99.90
11855;DHT22;5987;53.140;8.904;2023-04-24T16:22:30;9.90;99.90
11855;DHT22;5987;53.140;8.904;2023-04-24T16:25:34;9.90;99.90
11855;DHT22;5987;53.140;8.904;2023-04-24T16:28:38;9.80;99.90
11855;DHT22;5987;53.140;8.904;2023-04-24T16:31:41;9.70;99.90
11855;DHT22;5987;53.140;8.904;2023-04-24T16:34:47;9.70;99.90
11855;DHT22;5987;53.140;8.904;2023-04-24T16:37:50;9.70;99.90
11855;DHT22;5987;53.140;8.904;2023-04-24T16:40:54;9.80;99.90
11855;DHT22;5987;53.140;8.904;2023-04-24T16:43:57;9.90;99.90
11855;DHT22;5987;53.140;8.904;2023-04-24T16:47:01;9.90;99.90
11855;DHT22;5987;53.140;8.904;2023-04-24T16:50:07;9.90;99.90
11855;DHT22;5987;53.140;8.904;2023-04-24T16:53:11;9.90;99.90
11855;DHT22;5987;53.140;8.904;2023-04-24T16:56:14;9.90;99.90
11855;DHT22;5987;53.140;8.904;2023-04-24T16:59:18;9.90;99.90
11855;DHT22;5987;53.140;8.904;2023-04-24T17:02:21;9.90;99.90
11855;DHT22;5987;53.140;8.904;2023-04-24T17:05:27;9.70;99.90
11855;DHT22;5987;53.140;8.904;2023-04-24T17:08:30;9.60;99.90
11855;DHT22;5987;53.140;8.904;2023-04-24T17:11:34;9.70;99.90
11855;DHT22;5987;53.140;8.904;2023-04-24T17:14:38;9.70;99.90
11855;DHT22;5987;53.140;8.904;2023-04-24T17:17:41;9.70;99.90
11855;DHT22;5987;53.140;8.904;2023-04-24T17:20:48;9.80;99.90
11855;DHT22;5987;53.140;8.904;2023-04-24T17:23:52;9.60;99.90
11855;DHT22;5987;53.140;8.904;2023-04-24T17:26:56;9.60;99.90
11855;DHT22;5987;53.140;8.904;2023-04-24T17:30:15;9.70;99.90
11855;DHT22;5987;53.140;8.904;2023-04-24T17:33:19;9.80;99.90
11855;DHT22;5987;53.140;8.904;2023-04-24T17:36:24;9.80;99.90
11855;DHT22;5987;53.140;8.904;2023-04-24T17:39:27;9.70;99.90
11855;DHT22;5987;53.140;8.904;2023-04-24T17:42:31;9.70;99.90
11855;DHT22;5987;53.140;8.904;2023-04-24T17:45:34;9.60;99.90
11855;DHT22;5987;53.140;8.904;2023-04-24T17:48:38;9.50;99.90
11855;DHT22;5987;53.140;8.904;2023-04-24T17:51:43;9.60;99.90
11855;DHT22;5987;53.140;8.904;2023-04-24T17:54:47;9.50;99.90
11855;DHT22;5987;53.140;8.904;2023-04-24T17:57:50;9.50;99.90
11855;DHT22;5987;53.140;8.904;2023-04-24T18:00:54;9.60;99.90
11855;DHT22;5987;53.140;8.904;2023-04-24T18:03:57;9.50;99.90
11855;DHT22;5987;53.140;8.904;2023-04-24T18:07:03;9.50;99.90
11855;DHT22;5987;53.140;8.904;2023-04-24T18:10:07;9.50;99.90
11855;DHT22;5987;53.140;8.904;2023-04-24T18:13:11;9.40;99.90
11855;DHT22;5987;53.140;8.904;2023-04-24T18:16:15;9.40;99.90
11855;DHT22;5987;53.140;8.904;2023-04-24T18:19:19;9.40;99.90
11855;DHT22;5987;53.140;8.904;2023-04-24T18:22:23;9.40;99.90
11855;DHT22;5987;53.140;8.904;2023-04-24T18:25:27;9.30;99.90
11855;DHT22;5987;53.140;8.904;2023-04-24T18:28:31;9.30;99.90
11855;DHT22;5987;53.140;8.904;2023-04-24T18:31:35;9.30;99.90
11855;DHT22;5987;53.140;8.904;2023-04-24T18:34:39;9.30;99.90
11855;DHT22;5987;53.140;8.904;2023-04-24T18:37:44;9.30;99.90
11855;DHT22;5987;53.140;8.904;2023-04-24T18:40:48;9.30;99.90
11855;DHT22;5987;53.140;8.904;2023-04-24T18:43:52;9.20;99.90
11855;DHT22;5987;53.140;8.904;2023-04-24T18:46:58;9.30;99.90
11855;DHT22;5987;53.140;8.904;2023-04-24T18:50:02;9.30;99.90
11855;DHT22;5987;53.140;8.904;2023-04-24T18:53:08;9.30;99.90
11855;DHT22;5987;53.140;8.904;2023-04-24T18:56:15;9.30;99.90
11855;DHT22;5987;53.140;8.904;2023-04-24T18:59:19;9.20;99.90
11855;DHT22;5987;53.140;8.904;2023-04-24T19:02:23;9.20;99.90
11855;DHT22;5987;53.140;8.904;2023-04-24T19:05:27;9.30;99.90
11855;DHT22;5987;53.140;8.904;2023-04-24T19:08:33;9.30;99.90
11855;DHT22;5987;53.140;8.904;2023-04-24T19:11:41;9.20;99.90
11855;DHT22;5987;53.140;8.904;2023-04-24T19:14:45;9.10;99.90
11855;DHT22;5987;53.140;8.904;2023-04-24T19:17:49;9.10;99.90
11855;DHT22;5987;53.140;8.904;2023-04-24T19:20:53;9.20;99.90
11855;DHT22;5987;53.140;8.904;2023-04-24T19:23:59;9.20;99.90
11855;DHT22;5987;53.140;8.904;2023-04-24T19:27:04;9.10;99.90
11855;DHT22;5987;53.140;8.904;2023-04-24T19:30:09;9.10;99.90
11855;DHT22;5987;53.140;8.904;2023-04-24T19:33:17;9.10;99.90
11855;DHT22;5987;53.140;8.904;2023-04-24T19:36:20;9.00;99.90
11855;DHT22;5987;53.140;8.904;2023-04-24T19:39:29;9.00;99.90
11855;DHT22;5987;53.140;8.904;2023-04-24T19:42:34;9.00;99.90
11855;DHT22;5987;53.140;8.904;2023-04-24T19:45:45;9.00;99.90
11855;DHT22;5987;53.140;8.904;2023-04-24T19:48:49;9.00;99.90
11855;DHT22;5987;53.140;8.904;2023-04-24T19:51:53;9.00;99.90